• Join FlightAware (Why Join?)
  • Login
  • US Flag 
07:07AM EST


 

Airport Tracker/Info


-or-


 

Live Flight TrackerFlight Track Log ✈ UAL4336 ✈ 16-Mar-2014 ✈ KLGA - KCLE

Flight Track Log - Related Links

Times and Time Zones

All times are in EDT time to prevent confusion due to time zone crossing. See the UAL4336 flight status page for this flight to view local times or setup timezone preferences in your user account.

Time Position Orientation Groundspeed Altitude Reporting Facility
EDT Latitude Longitude Course Direction KTS MPH feet Rate Location/Type
02:42PM 40.8000 -73.8667 275° West 143 165 1,100  Level New York TRACON
02:43PM 40.8500 -73.8833 346° North 193 222 3,300 2,400 Climbing New York TRACON
02:44PM 40.8833 -73.9167 323° Northwest 230 265 5,800 3,120 Climbing New York TRACON
02:45PM 40.8168 -74.2184 277° West  Level FlightAware Approximate
02:45PM 40.9000 -74.0000 285° West 213 245 9,300  Level New York TRACON
02:46PM 40.8279 -74.3404 277° West  Level FlightAware Approximate
02:46PM 40.9000 -74.0833 270° West 243 280 11,100  Level New York TRACON
02:47PM 40.8378 -74.4626 275° West  Level FlightAware Approximate
02:47PM 40.9000 -74.1833 270° West 274 315 13,000  Level New York TRACON
02:48PM 40.9000 -74.2833 270° West 288 331 14,600 1,380 Climbing New York TRACON
02:49PM 40.9064 -74.3842 275° West 303 349 15,800 1,140 Climbing New York Center
02:50PM 40.9106 -74.5161 272° West 317 365 16,900 600 Climbing New York Center
02:51PM 40.9114 -74.6178 271° West 317 365 17,000  Climbing New York Center
02:52PM 40.9117 -74.7358 270° West 324 373 17,000  Level New York Center
02:53PM 40.9158 -74.8569 273° West 334 384 17,000 480 Level New York Center
02:54PM 40.9158 -74.9778 270° West 329 379 18,000 1,260 Climbing New York Center
02:55PM 40.9164 -75.0794 270° West 321 369 19,600 1,620 Climbing New York Center
02:56PM 40.9100 -75.1917 266° West 315 362 21,400 1,800 Climbing New York Center
02:57PM 40.8867 -75.3136 256° West 315 362 23,200 1,800 Climbing New York Center
02:58PM 40.8639 -75.4164 254° West 310 357 25,000 1,740 Climbing New York Center
02:59PM 40.8389 -75.5217 253° West 305 351 26,800 1,800 Climbing New York Center
03:00PM 40.8164 -75.6189 253° West 293 337 28,600 1,740 Climbing New York Center
03:01PM 40.7936 -75.7103 252° West 277 319 30,400 1,380 Climbing New York Center
03:02PM 40.7731 -75.8022 254° West 272 313 31,400 780 Climbing New York Center
03:03PM 40.7483 -75.8961 251° West 272 313 32,000 300 Climbing New York Center
03:04PM 40.7228 -76.0039 253° West 289 333 32,000  Level New York Center
03:05PM 40.6947 -76.1167 252° West 305 351 32,000  Level New York Center
03:06PM 40.6686 -76.2322 253° West 323 372 32,000  Level New York Center
03:07PM 40.6800 -76.3481 277° West 323 372 32,000  Level New York Center
03:08PM 40.6992 -76.4700 282° West 333 383 32,000  Level New York Center
03:09PM 40.7181 -76.5950 281° West 340 391 32,000  Level New York Center
03:10PM 40.7350 -76.7169 280° West 340 391 32,000  Level New York Center
03:11PM 40.7539 -76.8364 282° West 340 391 32,000  Level New York Center
03:12PM 40.7703 -76.9611 280° West 340 391 32,000  Level New York Center
03:13PM 40.7889 -77.0836 281° West 340 391 32,000  Level New York Center
03:14PM 40.8075 -77.2006 282° West 340 391 32,000  Level New York Center
03:15PM 40.8239 -77.3225 280° West 340 391 32,000  Level New York Center
03:16PM 40.8386 -77.4311 280° West 335 386 32,000  Level New York Center
03:18PM 40.8692 -77.6464 281° West 337 388 32,000  Level Cleveland Center
03:19PM 40.8858 -77.7697 280° West 338 389 32,000  Level Cleveland Center
03:20PM 40.9028 -77.8936 280° West 340 391 32,000  Level Cleveland Center
03:21PM 40.9239 -78.0439 281° West 344 396 32,000  Level Cleveland Center
03:22PM 40.9444 -78.1675 282° West 344 396 32,000  Level Cleveland Center
03:23PM 40.9656 -78.2931 283° West 344 396 32,000  Level Cleveland Center
03:24PM 40.9856 -78.4158 282° West 344 396 32,000  Level Cleveland Center
03:25PM 41.0042 -78.5383 281° West 343 395 32,000  Level Cleveland Center
03:26PM 41.0239 -78.6614 282° West 346 398 32,000  Level Cleveland Center
03:27PM 41.0475 -78.8128 282° West 348 400 32,000  Level Cleveland Center
03:28PM 41.0664 -78.9386 281° West 350 403 32,000  Level Cleveland Center
03:29PM 41.0872 -79.0656 282° West 351 404 32,000 -480 Level Cleveland Center
03:30PM 41.1061 -79.1911 281° West 351 404 31,000 -960 Descending Cleveland Center
03:31PM 41.1236 -79.3161 281° West 349 402 30,100 -1,020 Descending Cleveland Center
03:32PM 41.1492 -79.4733 282° West 364 419 28,900 -960 Descending Cleveland Center
03:33PM 41.1703 -79.6053 282° West 366 421 28,100 -840 Descending Cleveland Center
03:35PM 41.1925 -79.7472 282° West 370 426 27,200 -960 Descending Cleveland Center
03:36PM 41.2133 -79.8839 281° West 376 433 26,200 -960 Descending Cleveland Center
03:37PM 41.2322 -80.0106 281° West 376 433 25,300 -960 Descending Cleveland Center
03:38PM 41.2572 -80.1686 282° West 371 427 24,200 -1,440 Descending Cleveland Center
03:39PM 41.2761 -80.2989 281° West 366 421 22,400 -1,740 Descending Cleveland Center
03:40PM 41.2944 -80.4250 281° West 351 404 20,600 -1,740 Descending Cleveland Center
03:41PM 41.3136 -80.5511 281° West 347 399 18,800 -1,740 Descending Cleveland Center
03:42PM 41.3339 -80.6792 282° West 349 402 17,100 -1,920 Descending Cleveland Center
03:43PM 41.3844 -80.8117 297° West 346 398 14,800 -1,980 Descending Cleveland Center
03:44PM 41.4258 -80.9219 297° West 334 384 13,000 -1,920 Descending Cleveland Center
03:44PM 41.4303 -80.9336 297° West 328 377 12,700 -1,620 Descending Cleveland Center
03:45PM 41.4664 -81.0294 297° West 328 377 11,300 -1,320 Descending Cleveland Center
03:46PM 41.5061 -81.1353 297° West 323 372 10,100 -1,260 Descending Cleveland Center
03:46PM 41.5086 -81.1461 287° West 315 362 10,000 -120 Descending Cleveland Center
03:47PM 41.5033 -81.2569 266° West 305 351 10,000  Level Cleveland Center
03:47PM 41.5056 -81.2478 72° East 312 359 10,000 -120 Level Cleveland Center
03:48PM 41.4892 -81.3692 260° West 301 346 9,900  Descending Cleveland Center
03:48PM 41.4881 -81.3753 256° West 303 349 10,000 -1,140 Climbing Cleveland Center
03:49PM 41.4772 -81.4567 260° West 238 274 8,800 -1,200 Descending Cleveland Center
03:49PM 41.4767 -81.4644 265° West 253 291 8,800 -840 Level Cleveland Center
03:50PM 41.4644 -81.5522 260° West 251 289 8,000 -720 Descending Cleveland Center
03:50PM 41.4639 -81.5583 263° West 252 290 8,100  Climbing Cleveland Center
03:51PM 41.4428 -81.6297 248° West 268 308 8,000 -120 Descending Cleveland Center
03:51PM 41.4367 -81.6503 248° West 267 307 8,000  Level Cleveland Center
03:52PM 41.3989 -81.7428 241° Southwest 270 311 8,000 60 Level Cleveland Center
03:52PM 41.4025 -81.7364 53° Northeast 268 308 8,100 -1,320 Climbing Cleveland Center
03:53PM 41.3442 -81.8147 225° Southwest 268 308 6,700 -1,380 Descending Cleveland Center
03:53PM 41.3425 -81.8167 221° Southwest 268 308 6,700 -1,980 Level Cleveland Center
03:54PM 41.2908 -81.8894 227° Southwest 282 325 4,700 -1,980 Descending Cleveland Center
03:54PM 41.2900 -81.8906 225° Southwest 269 310 4,700 -720 Level Cleveland Center
03:55PM 41.2931 -81.9778 273° West 270 311 3,900 -1,020 Descending Cleveland Center
03:56PM 41.3311 -81.9769 North 198 228 3,000 -1,080 Descending Cleveland Center
03:56PM 41.3425 -81.9644 39° Northeast 220 253 2,800 -900 Descending Cleveland Center
03:57PM 41.3578 -81.9394 51° Northeast 129 148 2,200 -780 Descending Cleveland Center
03:57PM 41.3672 -81.9244 50° Northeast 162 186 2,000 -780 Descending Cleveland Center
03:58PM 41.3825 -81.8989 51° Northeast 110 127 1,400 -780 Descending Cleveland Center
03:58PM 41.3925 -81.8842 48° Northeast 130 150 1,200 -360 Descending Cleveland Center
03:59PM 41.4144 -81.8497 50° Northeast 125 144 900 -300 Descending Cleveland Center